createdAt,value
2019-03-09T00:03:54.700Z,8.20
2019-03-09T00:06:35.203Z,8.60
2019-03-09T00:09:16.219Z,8.70
2019-03-09T00:11:56.668Z,8.07
2019-03-09T00:14:37.000Z,8.70
2019-03-09T00:17:17.617Z,7.53
2019-03-09T00:19:58.036Z,8.40
2019-03-09T00:22:38.496Z,8.07
2019-03-09T00:25:23.209Z,7.90
2019-03-09T00:28:12.300Z,8.30
2019-03-09T00:30:58.682Z,8.20
2019-03-09T00:33:39.548Z,7.90
2019-03-09T00:36:20.358Z,8.83
2019-03-09T00:39:00.741Z,8.00
2019-03-09T00:41:41.392Z,6.73
2019-03-09T00:44:22.213Z,6.80
2019-03-09T00:47:03.299Z,7.20
2019-03-09T00:49:43.980Z,7.20
2019-03-09T00:52:24.664Z,6.83
2019-03-09T00:55:05.556Z,6.10
2019-03-09T00:57:46.430Z,6.63
2019-03-09T01:00:27.283Z,6.80
2019-03-09T01:03:08.034Z,5.50
2019-03-09T01:05:48.865Z,6.33
2019-03-09T01:08:29.603Z,5.70
2019-03-09T01:11:09.865Z,5.07
2019-03-09T01:13:50.356Z,5.13
2019-03-09T01:16:30.809Z,4.20
2019-03-09T01:19:11.497Z,4.63
2019-03-09T01:21:52.060Z,4.47
2019-03-09T01:24:32.834Z,4.87
2019-03-09T01:27:13.472Z,3.57
2019-03-09T01:29:54.134Z,4.47
2019-03-09T01:32:34.747Z,4.53
2019-03-09T01:35:15.488Z,3.83
2019-03-09T01:37:55.808Z,3.60
2019-03-09T01:40:36.407Z,4.30
2019-03-09T01:43:16.760Z,4.50
2019-03-09T01:45:57.119Z,4.10
2019-03-09T01:48:37.679Z,4.30
2019-03-09T01:51:18.172Z,4.13
2019-03-09T01:53:58.875Z,4.20
2019-03-09T01:56:39.260Z,4.97
2019-03-09T01:59:19.844Z,5.10
2019-03-09T02:02:00.195Z,4.60
2019-03-09T02:04:40.909Z,4.53
2019-03-09T02:07:21.143Z,4.40
2019-03-09T02:10:01.820Z,4.50
2019-03-09T02:12:42.271Z,4.37
2019-03-09T02:15:22.923Z,3.40
2019-03-09T02:18:03.649Z,4.30
2019-03-09T02:20:44.731Z,2.90
2019-03-09T02:23:25.212Z,4.23
2019-03-09T02:26:05.552Z,4.87
2019-03-09T02:28:46.153Z,4.90
2019-03-09T02:31:26.400Z,3.57
2019-03-09T02:34:07.208Z,4.30
2019-03-09T02:36:48.005Z,4.37
2019-03-09T02:42:27.528Z,5.10
2019-03-09T02:45:08.102Z,4.40
2019-03-09T02:47:48.728Z,4.03
2019-03-09T02:50:29.437Z,4.80
2019-03-09T02:53:10.455Z,4.33
2019-03-09T02:55:51.391Z,4.57
2019-03-09T02:58:31.792Z,4.53
2019-03-09T03:04:23.040Z,5.70
2019-03-09T03:07:03.499Z,5.60
2019-03-09T03:09:43.745Z,5.20
2019-03-09T03:12:24.225Z,4.60
2019-03-09T03:15:05.210Z,5.13
2019-03-09T03:17:46.375Z,5.83
2019-03-09T03:20:27.072Z,5.07
2019-03-09T03:23:08.041Z,4.57
2019-03-09T03:25:48.298Z,5.87
2019-03-09T03:28:28.593Z,5.97
2019-03-09T03:31:09.053Z,4.97
2019-03-09T03:33:49.846Z,5.40
2019-03-09T03:36:30.933Z,4.60
2019-03-09T03:39:11.438Z,4.47
2019-03-09T03:41:52.205Z,5.07
2019-03-09T03:44:34.382Z,4.47
2019-03-09T03:47:15.275Z,4.30
2019-03-09T03:49:55.801Z,3.93
2019-03-09T03:52:36.578Z,3.30
2019-03-09T03:55:17.079Z,3.00
2019-03-09T03:57:58.115Z,3.07
2019-03-09T04:00:38.924Z,3.60
2019-03-09T04:03:19.785Z,2.40
2019-03-09T04:06:00.801Z,2.50
2019-03-09T04:08:42.334Z,2.20
2019-03-09T04:11:22.679Z,2.40
2019-03-09T04:14:03.493Z,2.37
2019-03-09T04:16:44.259Z,1.93
2019-03-09T04:19:25.016Z,2.30
2019-03-09T04:22:05.406Z,2.23
2019-03-09T04:24:46.134Z,2.20
2019-03-09T04:27:26.535Z,1.67
2019-03-09T04:30:07.062Z,2.00
2019-03-09T04:32:47.761Z,1.90
2019-03-09T04:35:28.712Z,2.20
2019-03-09T04:38:09.377Z,1.60
2019-03-09T04:40:50.184Z,1.80
2019-03-09T04:43:30.578Z,1.60
2019-03-09T04:46:11.320Z,1.60
2019-03-09T04:48:52.468Z,1.70
2019-03-09T04:51:33.007Z,2.00
2019-03-09T04:54:13.578Z,1.80
2019-03-09T04:56:54.168Z,1.97
2019-03-09T04:59:35.015Z,1.97
2019-03-09T05:02:15.502Z,2.03
2019-03-09T05:04:56.031Z,1.73
2019-03-09T05:07:36.792Z,2.00
2019-03-09T05:10:17.248Z,1.97
2019-03-09T05:12:58.020Z,1.80
2019-03-09T05:15:38.573Z,2.00
2019-03-09T05:18:19.070Z,2.10
2019-03-09T05:20:59.358Z,1.93
2019-03-09T05:23:40.073Z,2.17
2019-03-09T05:26:20.680Z,2.40
2019-03-09T05:29:01.161Z,2.33
2019-03-09T05:31:42.109Z,2.53
2019-03-09T05:34:22.698Z,2.23
2019-03-09T05:37:03.253Z,2.40
2019-03-09T05:39:43.687Z,2.50
2019-03-09T05:42:24.489Z,2.37
2019-03-09T05:45:04.982Z,2.50
2019-03-09T05:47:45.680Z,2.47
2019-03-09T05:50:26.199Z,2.30
2019-03-09T05:53:06.808Z,3.10
2019-03-09T05:55:47.243Z,2.87
2019-03-09T05:58:27.867Z,2.27
2019-03-09T06:01:09.118Z,2.53
2019-03-09T06:03:49.742Z,3.40
2019-03-09T06:06:30.104Z,3.03
2019-03-09T06:09:10.692Z,3.37
2019-03-09T06:11:51.422Z,3.30
2019-03-09T06:14:32.084Z,3.63
2019-03-09T06:17:12.584Z,4.27
2019-03-09T06:19:53.860Z,4.10
2019-03-09T06:22:34.468Z,4.20
2019-03-09T06:25:15.220Z,4.20
2019-03-09T06:27:56.420Z,3.80
2019-03-09T06:30:36.762Z,3.50
2019-03-09T06:33:17.444Z,3.80
2019-03-09T06:35:58.085Z,3.40
2019-03-09T06:38:38.568Z,3.60
2019-03-09T06:41:19.316Z,3.30
2019-03-09T06:43:59.753Z,4.20
2019-03-09T06:46:40.137Z,3.93
2019-03-09T06:49:20.513Z,3.40
2019-03-09T06:52:01.109Z,3.57
2019-03-09T06:54:41.720Z,3.50
2019-03-09T06:57:22.268Z,3.40
2019-03-09T07:00:02.796Z,3.60
2019-03-09T07:02:43.493Z,3.50
2019-03-09T07:05:23.957Z,3.37
2019-03-09T07:08:04.661Z,3.00
2019-03-09T07:10:45.180Z,3.67
2019-03-09T07:13:25.716Z,3.20
2019-03-09T07:16:06.438Z,3.77
2019-03-09T07:18:46.772Z,3.30
2019-03-09T07:21:27.411Z,3.00
2019-03-09T07:24:08.054Z,3.37
2019-03-09T07:26:48.820Z,3.63
2019-03-09T07:29:29.591Z,3.40
2019-03-09T07:32:10.328Z,3.30
2019-03-09T07:34:51.230Z,2.83
2019-03-09T07:37:32.192Z,3.20
2019-03-09T07:40:12.896Z,2.50
2019-03-09T07:42:53.496Z,3.50
2019-03-09T07:45:34.004Z,3.67
2019-03-09T07:48:14.767Z,4.20
2019-03-09T07:50:55.440Z,3.27
2019-03-09T07:53:36.148Z,4.10
2019-03-09T07:56:16.879Z,3.57
2019-03-09T07:58:57.579Z,3.57
2019-03-09T08:01:38.220Z,4.70
2019-03-09T08:04:18.747Z,3.60
2019-03-09T08:06:59.588Z,3.23
2019-03-09T08:09:40.331Z,4.10
2019-03-09T08:12:20.836Z,3.90
2019-03-09T08:15:01.396Z,4.90
2019-03-09T08:17:42.145Z,3.60
2019-03-09T08:20:22.727Z,3.97
2019-03-09T08:23:03.447Z,4.77
2019-03-09T08:25:44.027Z,3.70
2019-03-09T08:28:24.830Z,4.20
2019-03-09T08:31:05.596Z,3.97
2019-03-09T08:33:46.265Z,3.60
2019-03-09T08:36:26.884Z,3.50
2019-03-09T08:39:07.668Z,4.03
2019-03-09T08:41:48.223Z,4.23
2019-03-09T08:44:28.988Z,4.00
2019-03-09T08:47:09.692Z,3.40
2019-03-09T08:49:50.545Z,3.57
2019-03-09T08:52:31.343Z,3.90
2019-03-09T08:55:12.146Z,3.80
2019-03-09T08:57:52.905Z,4.20
2019-03-09T09:00:33.664Z,4.70
2019-03-09T09:03:14.424Z,4.10
2019-03-09T09:05:55.160Z,3.93
2019-03-09T09:08:35.869Z,3.70
2019-03-09T09:11:16.160Z,3.87
2019-03-09T09:13:56.657Z,3.50
2019-03-09T09:16:37.258Z,3.77
2019-03-09T09:19:17.771Z,3.07
2019-03-09T09:21:58.472Z,3.53
2019-03-09T09:24:38.832Z,3.40
2019-03-09T09:27:19.249Z,2.93
2019-03-09T09:29:59.805Z,3.37
2019-03-09T09:32:40.285Z,4.00
2019-03-09T09:35:21.537Z,3.60
2019-03-09T09:38:02.440Z,3.83
2019-03-09T09:40:43.092Z,3.90
2019-03-09T09:43:23.724Z,3.10
2019-03-09T09:46:04.432Z,3.57
2019-03-09T09:48:45.150Z,3.80
2019-03-09T09:51:25.987Z,3.57
2019-03-09T09:54:06.684Z,2.63
2019-03-09T09:56:47.418Z,2.83
2019-03-09T09:59:28.174Z,3.43
2019-03-09T10:02:08.851Z,3.20
2019-03-09T10:04:49.695Z,3.30
2019-03-09T10:07:30.430Z,3.30
2019-03-09T10:10:10.812Z,3.50
2019-03-09T10:12:51.510Z,3.97
2019-03-09T10:15:32.400Z,3.87
2019-03-09T10:18:13.184Z,3.30
2019-03-09T10:20:53.996Z,3.23
2019-03-09T10:23:37.581Z,3.90
2019-03-09T10:26:18.740Z,4.60
2019-03-09T10:28:59.034Z,3.77
2019-03-09T10:31:39.683Z,4.13
2019-03-09T10:34:20.419Z,4.30
2019-03-09T10:37:01.213Z,4.43
2019-03-09T10:39:41.872Z,4.33
2019-03-09T10:42:22.556Z,4.77
2019-03-09T10:45:03.210Z,4.23
2019-03-09T10:47:43.872Z,4.60
2019-03-09T10:50:25.974Z,4.73
2019-03-09T10:53:06.522Z,4.10
2019-03-09T10:55:47.770Z,4.30
2019-03-09T10:58:28.122Z,5.47
2019-03-09T11:01:08.863Z,4.70
2019-03-09T11:03:49.845Z,4.50
2019-03-09T11:06:30.695Z,4.90
2019-03-09T11:09:11.360Z,4.10
2019-03-09T11:11:52.271Z,4.90
2019-03-09T11:14:32.773Z,4.97
2019-03-09T11:17:13.372Z,4.90
2019-03-09T11:19:54.065Z,4.80
2019-03-09T11:22:34.808Z,4.50
2019-03-09T11:25:15.551Z,4.97
2019-03-09T11:27:56.461Z,4.30
2019-03-09T11:30:36.988Z,5.00
2019-03-09T11:33:17.678Z,4.03
2019-03-09T11:35:58.649Z,4.73
2019-03-09T11:38:39.248Z,5.10
2019-03-09T11:41:20.032Z,4.90
2019-03-09T11:44:00.784Z,5.13
2019-03-09T11:46:41.553Z,5.23
2019-03-09T11:49:21.955Z,4.67
2019-03-09T11:52:02.822Z,5.60
2019-03-09T11:54:43.524Z,4.97
2019-03-09T11:57:24.099Z,5.43
2019-03-09T12:00:04.851Z,5.43
2019-03-09T12:02:45.478Z,5.50
2019-03-09T12:05:26.499Z,5.67
2019-03-09T12:08:07.379Z,5.30
2019-03-09T12:10:48.140Z,4.80
2019-03-09T12:13:28.760Z,4.70
2019-03-09T12:16:09.672Z,5.40
2019-03-09T12:18:50.440Z,5.33
2019-03-09T12:21:31.170Z,5.33
2019-03-09T12:24:16.400Z,5.20
2019-03-09T12:26:54.823Z,6.10
2019-03-09T12:29:35.400Z,6.30
2019-03-09T12:32:16.231Z,6.63
2019-03-09T12:34:56.900Z,6.10
2019-03-09T12:37:37.615Z,7.17
2019-03-09T12:40:18.118Z,7.67
2019-03-09T12:42:58.676Z,6.67
2019-03-09T12:45:39.334Z,7.37
2019-03-09T12:48:19.869Z,6.90
2019-03-09T12:51:00.693Z,7.53
2019-03-09T12:53:41.377Z,7.53
2019-03-09T12:56:22.129Z,7.20
2019-03-09T12:59:02.914Z,7.10
2019-03-09T13:01:43.752Z,6.90
2019-03-09T13:04:24.549Z,7.97
2019-03-09T13:07:05.504Z,8.13
2019-03-09T13:09:46.222Z,8.33
2019-03-09T13:12:26.953Z,9.50
2019-03-09T13:15:07.865Z,10.07
2019-03-09T13:17:48.806Z,10.07
2019-03-09T13:20:29.560Z,8.73
2019-03-09T13:23:10.364Z,9.30
2019-03-09T13:25:51.097Z,9.53
2019-03-09T13:28:31.716Z,9.20
2019-03-09T13:31:12.276Z,8.70
2019-03-09T13:33:52.724Z,9.50
2019-03-09T13:36:33.332Z,10.03
2019-03-09T13:39:14.185Z,7.60
2019-03-09T13:41:55.119Z,4.93
2019-03-09T13:44:35.759Z,3.60
2019-03-09T13:47:16.535Z,5.10
2019-03-09T13:49:57.157Z,5.70
2019-03-09T13:52:38.044Z,5.73
2019-03-09T13:55:18.847Z,6.13
2019-03-09T13:58:00.795Z,7.23
2019-03-09T14:00:41.600Z,6.97
2019-03-09T14:03:22.236Z,6.73
2019-03-09T14:06:03.073Z,7.53
2019-03-09T14:08:43.697Z,8.23
2019-03-09T14:11:26.956Z,7.00
2019-03-09T14:14:07.424Z,7.30
2019-03-09T14:16:47.804Z,7.33
2019-03-09T14:19:28.512Z,8.00
2019-03-09T14:22:09.085Z,7.33
2019-03-09T14:24:49.799Z,6.40
2019-03-09T14:27:30.709Z,6.30
2019-03-09T14:30:11.123Z,6.33
2019-03-09T14:32:51.975Z,6.50
2019-03-09T14:35:32.679Z,6.60
2019-03-09T14:38:13.468Z,6.83
2019-03-09T14:40:54.118Z,6.70
2019-03-09T14:43:34.934Z,7.67
2019-03-09T14:46:15.421Z,6.90
2019-03-09T14:48:56.149Z,7.13
2019-03-09T14:51:36.773Z,6.83
2019-03-09T14:54:17.608Z,7.37
2019-03-09T14:56:58.535Z,8.03
2019-03-09T14:59:39.296Z,8.80
2019-03-09T15:02:20.073Z,7.90
2019-03-09T15:05:00.712Z,8.13
2019-03-09T15:07:40.996Z,8.40
2019-03-09T15:10:21.701Z,8.00
2019-03-09T15:13:02.324Z,8.60
2019-03-09T15:15:43.626Z,7.13
2019-03-09T15:18:23.994Z,7.60
2019-03-09T15:21:04.922Z,7.40
2019-03-09T15:23:45.693Z,6.40
2019-03-09T15:26:26.205Z,3.70
2019-03-09T15:29:07.202Z,2.40
2019-03-09T15:31:47.888Z,2.70
2019-03-09T15:34:28.691Z,3.20
2019-03-09T15:37:09.480Z,3.90
2019-03-09T15:39:49.956Z,3.60
2019-03-09T15:42:30.521Z,4.50
2019-03-09T15:45:11.178Z,4.27
2019-03-09T15:47:51.882Z,4.67
2019-03-09T15:50:32.567Z,4.43
2019-03-09T15:53:13.207Z,4.20
2019-03-09T15:55:53.848Z,3.80
2019-03-09T15:58:34.555Z,3.63
2019-03-09T16:01:15.227Z,3.67
2019-03-09T16:03:56.045Z,3.63
2019-03-09T16:06:36.760Z,4.53
2019-03-09T16:09:17.451Z,4.13
2019-03-09T16:11:58.233Z,4.10
2019-03-09T16:14:39.170Z,3.40
2019-03-09T16:17:19.772Z,3.33
2019-03-09T16:20:00.605Z,3.53
2019-03-09T16:22:41.549Z,3.60
2019-03-09T16:25:22.079Z,4.27
2019-03-09T16:28:02.956Z,3.20
2019-03-09T16:30:43.857Z,4.53
2019-03-09T16:33:24.579Z,4.00
2019-03-09T16:36:05.467Z,3.93
2019-03-09T16:38:46.156Z,3.73
2019-03-09T16:41:26.820Z,3.27
2019-03-09T16:44:07.664Z,3.10
2019-03-09T16:46:48.456Z,3.03
2019-03-09T16:49:29.099Z,2.80
2019-03-09T16:52:09.799Z,2.97
2019-03-09T16:54:50.466Z,2.30
2019-03-09T16:57:31.364Z,2.60
2019-03-09T17:00:11.932Z,2.60
2019-03-09T17:02:52.711Z,2.10
2019-03-09T17:05:33.453Z,1.87
2019-03-09T17:08:14.388Z,1.83
2019-03-09T17:10:55.055Z,1.33
2019-03-09T17:13:35.906Z,1.43
2019-03-09T17:16:16.874Z,0.93
2019-03-09T17:18:57.613Z,1.03
2019-03-09T17:21:38.232Z,1.10
2019-03-09T17:24:18.889Z,1.17
2019-03-09T17:27:00.029Z,1.40
2019-03-09T17:29:40.943Z,1.30
2019-03-09T17:32:25.795Z,1.33
2019-03-09T17:35:04.404Z,1.37
2019-03-09T17:37:45.219Z,1.10
2019-03-09T17:40:26.080Z,1.23
2019-03-09T17:43:06.762Z,1.37
2019-03-09T17:45:47.590Z,1.40
2019-03-09T17:48:28.308Z,1.50
2019-03-09T17:51:09.219Z,1.37
2019-03-09T17:53:49.903Z,1.60
2019-03-09T17:56:30.561Z,1.47
2019-03-09T17:59:11.084Z,1.13
2019-03-09T18:01:51.878Z,1.33
2019-03-09T18:04:32.639Z,1.30
2019-03-09T18:07:13.470Z,1.70
2019-03-09T18:09:53.977Z,1.70
2019-03-09T18:13:38.700Z,1.40
2019-03-09T18:16:19.281Z,1.37
2019-03-09T18:19:00.266Z,1.30
2019-03-09T18:21:40.988Z,1.10
2019-03-09T18:24:21.660Z,1.20
2019-03-09T18:27:02.228Z,0.80
2019-03-09T18:29:43.004Z,0.90
2019-03-09T18:32:24.147Z,1.37
2019-03-09T18:35:04.866Z,1.10
2019-03-09T18:37:45.510Z,1.00
2019-03-09T18:40:26.072Z,1.47
2019-03-09T18:43:06.792Z,1.70
2019-03-09T18:45:47.595Z,1.10
2019-03-09T18:48:28.456Z,1.20
2019-03-09T18:51:09.216Z,0.87
2019-03-09T18:53:49.841Z,1.10
2019-03-09T18:56:30.604Z,1.10
2019-03-09T18:59:11.292Z,1.07
2019-03-09T19:01:52.256Z,1.30
2019-03-09T19:04:33.099Z,1.20
2019-03-09T19:07:13.776Z,1.10
2019-03-09T19:09:54.584Z,1.03
2019-03-09T19:12:35.524Z,2.37
2019-03-09T19:15:16.353Z,1.57
2019-03-09T19:17:57.295Z,1.40
2019-03-09T19:20:37.879Z,1.73
2019-03-09T19:23:18.544Z,1.60
2019-03-09T19:25:59.228Z,1.27
2019-03-09T19:28:39.740Z,1.60
2019-03-09T19:31:20.661Z,1.40
2019-03-09T19:34:01.181Z,1.37
2019-03-09T19:36:41.852Z,1.83
2019-03-09T19:39:22.718Z,1.57
2019-03-09T19:42:03.527Z,1.67
2019-03-09T19:44:44.749Z,1.90
2019-03-09T19:47:25.151Z,1.90
2019-03-09T19:50:05.584Z,1.50
2019-03-09T19:52:46.457Z,1.60
2019-03-09T19:55:27.147Z,1.43
2019-03-09T19:58:08.008Z,1.60
2019-03-09T20:00:48.793Z,2.17
2019-03-09T20:03:29.356Z,1.90
2019-03-09T20:06:10.079Z,2.30
2019-03-09T20:08:50.879Z,1.83
2019-03-09T20:11:32.086Z,1.47
2019-03-09T20:14:12.854Z,1.97
2019-03-09T20:16:53.255Z,2.23
2019-03-09T20:19:34.244Z,2.10
2019-03-09T20:22:15.016Z,1.80
2019-03-09T20:24:55.580Z,1.90
2019-03-09T20:27:36.275Z,1.63
2019-03-09T20:30:17.554Z,1.87
2019-03-09T20:32:58.593Z,1.93
2019-03-09T20:35:38.917Z,2.20
2019-03-09T20:38:19.688Z,1.67
2019-03-09T20:41:00.413Z,1.83
2019-03-09T20:43:41.245Z,2.00
2019-03-09T20:46:22.024Z,1.50
2019-03-09T20:49:02.796Z,1.60
2019-03-09T20:51:43.456Z,1.60
2019-03-09T20:54:24.275Z,1.80
2019-03-09T20:57:05.299Z,2.27
2019-03-09T20:59:46.047Z,1.40
2019-03-09T21:02:26.906Z,1.77
2019-03-09T21:05:07.804Z,1.60
2019-03-09T21:07:48.871Z,1.73
2019-03-09T21:10:29.367Z,1.40
2019-03-09T21:13:09.949Z,1.50
2019-03-09T21:15:50.796Z,2.20
2019-03-09T21:18:31.265Z,1.93
2019-03-09T21:21:11.921Z,1.80
2019-03-09T21:23:52.776Z,2.17
2019-03-09T21:26:33.559Z,2.00
2019-03-09T21:29:14.144Z,1.80
2019-03-09T21:31:54.824Z,1.40
2019-03-09T21:34:35.504Z,1.77
2019-03-09T21:37:16.490Z,1.90
2019-03-09T21:39:57.077Z,1.70
2019-03-09T21:42:37.752Z,2.20
2019-03-09T21:45:18.585Z,1.60
2019-03-09T21:47:59.164Z,1.80
2019-03-09T21:50:39.904Z,2.37
2019-03-09T21:53:20.689Z,1.67
2019-03-09T21:56:01.345Z,1.57
2019-03-09T21:58:42.139Z,1.30
2019-03-09T22:01:22.747Z,1.93
2019-03-09T22:04:03.389Z,1.90
2019-03-09T22:06:44.114Z,1.80
2019-03-09T22:09:24.733Z,2.13
2019-03-09T22:12:05.337Z,1.80
2019-03-09T22:14:46.091Z,2.07
2019-03-09T22:17:26.861Z,2.13
2019-03-09T22:20:07.555Z,1.80
2019-03-09T22:22:48.156Z,2.10
2019-03-09T22:25:28.857Z,1.97
2019-03-09T22:28:09.548Z,2.00
2019-03-09T22:30:50.194Z,1.80
2019-03-09T22:33:30.856Z,2.20
2019-03-09T22:36:11.670Z,1.60
2019-03-09T22:38:52.300Z,2.40
2019-03-09T22:41:33.041Z,1.70
2019-03-09T22:44:18.492Z,1.77
2019-03-09T22:46:58.539Z,1.80
2019-03-09T22:49:39.344Z,2.43
2019-03-09T22:52:20.001Z,2.17
2019-03-09T22:55:00.480Z,1.70
2019-03-09T22:57:41.320Z,1.97
2019-03-09T23:00:21.979Z,2.03
2019-03-09T23:03:02.741Z,2.57
2019-03-09T23:05:43.560Z,2.40
2019-03-09T23:08:24.180Z,1.80
2019-03-09T23:11:04.886Z,2.13
2019-03-09T23:13:45.609Z,2.13
2019-03-09T23:16:26.412Z,2.73
2019-03-09T23:19:07.292Z,2.47
2019-03-09T23:21:48.093Z,1.90
2019-03-09T23:24:29.067Z,3.23
2019-03-09T23:27:09.923Z,2.60
2019-03-09T23:29:50.569Z,2.90
2019-03-09T23:32:31.608Z,2.93
2019-03-09T23:35:12.433Z,2.57
2019-03-09T23:37:53.048Z,3.13
2019-03-09T23:40:33.963Z,3.07
2019-03-09T23:43:14.688Z,3.00
2019-03-09T23:45:55.427Z,3.10
2019-03-09T23:48:36.106Z,3.27
2019-03-09T23:51:17.047Z,2.90
2019-03-09T23:53:57.844Z,2.83
2019-03-09T23:56:38.578Z,2.93
2019-03-09T23:59:19.426Z,3.37
